createdAt,value
2022-09-23T00:03:23.629Z,42.61
2022-09-23T00:08:26.048Z,41.51
2022-09-23T00:13:28.183Z,41.31
2022-09-23T00:18:30.317Z,40.33
2022-09-23T00:23:33.259Z,40.81
2022-09-23T00:28:35.991Z,42.89
2022-09-23T00:33:38.307Z,44.82
2022-09-23T00:38:40.398Z,41.76
2022-09-23T00:43:55.361Z,41.41
2022-09-23T00:49:02.234Z,41.12
2022-09-23T00:54:06.836Z,40.60
2022-09-23T00:59:10.533Z,40.36
2022-09-23T01:04:14.844Z,40.64
2022-09-23T01:09:18.128Z,39.95
2022-09-23T01:14:46.773Z,40.19
2022-09-23T01:20:16.736Z,40.30
2022-09-23T01:25:28.253Z,40.22
2022-09-23T01:30:45.633Z,41.39
2022-09-23T01:36:02.838Z,40.41
2022-09-23T01:41:21.118Z,40.53
2022-09-23T01:46:29.728Z,40.23
2022-09-23T01:51:37.624Z,40.32
2022-09-23T01:56:46.326Z,41.31
2022-09-23T02:01:55.840Z,40.33
2022-09-23T02:07:04.115Z,40.78
2022-09-23T02:12:12.856Z,41.12
2022-09-23T02:17:22.974Z,42.73
2022-09-23T02:22:35.519Z,43.82
2022-09-23T02:27:50.307Z,43.38
2022-09-23T02:32:54.824Z,43.08
2022-09-23T02:38:09.034Z,42.36
2022-09-23T02:43:20.303Z,41.67
2022-09-23T02:48:27.519Z,40.56
2022-09-23T02:53:33.920Z,40.62
2022-09-23T02:58:37.207Z,40.37
2022-09-23T03:04:17.810Z,40.37
2022-09-23T03:09:27.297Z,40.40
2022-09-23T03:14:41.784Z,39.75
2022-09-23T03:19:53.987Z,40.23
2022-09-23T03:25:02.655Z,40.85
2022-09-23T03:30:07.297Z,41.74
2022-09-23T03:35:09.922Z,40.53
2022-09-23T03:40:12.093Z,44.09
2022-09-23T03:45:18.686Z,41.50
2022-09-23T03:50:21.427Z,41.58
2022-09-23T03:55:23.630Z,40.60
2022-09-23T04:00:26.775Z,40.76
2022-09-23T04:05:30.482Z,40.83
2022-09-23T04:10:32.586Z,40.64
2022-09-23T04:15:34.866Z,40.04
2022-09-23T04:20:39.413Z,41.51
2022-09-23T04:25:47.894Z,43.85
2022-09-23T04:30:54.881Z,42.24
2022-09-23T04:35:57.027Z,41.38
2022-09-23T04:40:59.453Z,41.22
2022-09-23T04:46:04.254Z,41.01
2022-09-23T04:51:12.318Z,43.18
2022-09-23T04:56:20.144Z,41.60
2022-09-23T05:01:25.424Z,41.31
2022-09-23T05:06:27.653Z,41.17
2022-09-23T05:11:31.748Z,42.38
2022-09-23T05:16:34.121Z,40.75
2022-09-23T05:21:37.878Z,41.16
2022-09-23T05:26:40.164Z,40.67
2022-09-23T05:31:42.313Z,40.70
2022-09-23T05:36:44.777Z,40.46
2022-09-23T05:41:46.933Z,40.31
2022-09-23T05:46:49.341Z,41.23
2022-09-23T05:51:51.565Z,41.13
2022-09-23T05:56:53.662Z,40.36
2022-09-23T06:01:56.858Z,39.92
2022-09-23T06:07:02.913Z,39.93
2022-09-23T06:12:06.490Z,40.88
2022-09-23T06:17:08.769Z,41.42
2022-09-23T06:22:12.004Z,43.50
2022-09-23T06:27:14.111Z,45.03
2022-09-23T06:32:16.759Z,43.47
2022-09-23T06:37:20.644Z,42.57
2022-09-23T06:42:23.137Z,42.07
2022-09-23T06:47:25.332Z,41.00
2022-09-23T06:52:28.683Z,41.06
2022-09-23T06:57:31.674Z,40.65
2022-09-23T07:02:33.986Z,40.03
2022-09-23T07:07:37.578Z,41.23
2022-09-23T07:12:39.761Z,40.39
2022-09-23T07:17:43.230Z,40.78
2022-09-23T07:22:52.654Z,38.77
2022-09-23T07:27:56.222Z,38.03
2022-09-23T07:32:58.295Z,36.65
2022-09-23T07:38:00.876Z,38.03
2022-09-23T07:43:04.743Z,36.83
2022-09-23T07:48:06.947Z,36.19
2022-09-23T07:53:09.170Z,37.27
2022-09-23T07:58:11.330Z,37.15
2022-09-23T08:03:14.913Z,37.66
2022-09-23T08:08:17.439Z,37.54
2022-09-23T08:13:19.569Z,38.67
2022-09-23T08:18:21.843Z,37.37
2022-09-23T08:23:24.238Z,35.73
2022-09-23T08:28:27.286Z,35.79
2022-09-23T08:33:29.823Z,35.55
2022-09-23T08:38:32.175Z,35.07
2022-09-23T08:43:36.593Z,34.51
2022-09-23T08:48:44.490Z,34.84
2022-09-23T08:53:47.706Z,33.92
2022-09-23T08:59:07.973Z,34.77
2022-09-23T09:04:22.229Z,32.93
2022-09-23T09:09:30.453Z,31.24
2022-09-23T09:15:01.335Z,36.34
2022-09-23T09:20:18.974Z,40.85
2022-09-23T09:25:34.143Z,43.28
2022-09-23T09:30:36.910Z,44.53
2022-09-23T09:36:01.913Z,46.10
2022-09-23T09:41:18.425Z,49.18
2022-09-23T09:46:36.557Z,42.01
2022-09-23T09:51:41.320Z,41.18
2022-09-23T09:56:44.871Z,44.15
2022-09-23T10:01:47.408Z,43.77
2022-09-23T10:07:13.554Z,38.08
2022-09-23T10:12:19.294Z,38.15
2022-09-23T10:17:34.104Z,36.28
2022-09-23T10:22:39.856Z,39.97
2022-09-23T10:27:42.017Z,46.19
2022-09-23T10:32:45.233Z,36.62
2022-09-23T10:37:53.285Z,34.77
2022-09-23T10:43:58.212Z,36.00
2022-09-23T10:49:10.150Z,35.54
2022-09-23T10:54:33.715Z,39.61
2022-09-23T10:59:57.698Z,40.09
2022-09-23T11:05:12.093Z,37.80
2022-09-23T11:10:35.332Z,42.22
2022-09-23T11:16:07.216Z,38.10
2022-09-23T11:21:40.135Z,34.56
2022-09-23T11:26:57.837Z,40.64
2022-09-23T11:32:48.119Z,37.87
2022-09-23T11:38:06.639Z,38.37
2022-09-23T11:43:26.873Z,38.11
2022-09-23T11:48:51.105Z,39.30
2022-09-23T11:54:10.011Z,37.53
2022-09-23T11:59:40.522Z,32.99
2022-09-23T12:04:57.096Z,34.06
2022-09-23T12:10:06.233Z,30.75
2022-09-23T12:15:20.803Z,30.47
2022-09-23T12:20:56.135Z,35.63
2022-09-23T12:26:03.138Z,37.79
2022-09-23T12:31:11.368Z,31.34
2022-09-23T12:36:13.771Z,31.38
2022-09-23T12:41:27.423Z,35.08
2022-09-23T12:46:29.616Z,38.36
2022-09-23T12:51:34.820Z,38.18
2022-09-23T12:56:36.838Z,32.62
2022-09-23T13:01:39.439Z,32.84
2022-09-23T13:06:50.834Z,33.10
2022-09-23T13:12:01.730Z,33.25
2022-09-23T13:17:04.644Z,41.30
2022-09-23T13:22:24.358Z,38.20
2022-09-23T13:27:33.929Z,33.06
2022-09-23T13:32:41.941Z,36.39
2022-09-23T13:37:56.984Z,31.94
2022-09-23T13:43:32.149Z,27.56
2022-09-23T13:48:43.679Z,29.32
2022-09-23T13:53:53.759Z,32.56
2022-09-23T13:59:26.526Z,29.14
2022-09-23T14:04:28.877Z,35.82
2022-09-23T14:09:33.565Z,35.99
2022-09-23T14:14:38.555Z,33.28
2022-09-23T14:19:42.648Z,36.03
2022-09-23T14:24:44.910Z,31.77
2022-09-23T14:29:49.477Z,32.83
2022-09-23T14:35:00.870Z,35.03
2022-09-23T14:40:09.248Z,36.47
2022-09-23T14:45:30.245Z,34.77
2022-09-23T14:50:48.673Z,34.62
2022-09-23T14:56:07.295Z,36.21
2022-09-23T15:01:32.481Z,34.83
2022-09-23T15:06:40.516Z,39.67
2022-09-23T15:11:42.769Z,36.81
2022-09-23T15:16:47.467Z,35.61
2022-09-23T15:21:53.735Z,33.88
2022-09-23T15:26:58.138Z,36.61
2022-09-23T15:32:00.541Z,34.06
2022-09-23T15:37:03.241Z,35.43
2022-09-23T15:42:07.273Z,35.17
2022-09-23T15:47:18.976Z,35.84
2022-09-23T15:52:22.942Z,39.76
2022-09-23T15:57:26.126Z,34.48
2022-09-23T16:02:29.021Z,35.25
2022-09-23T16:07:31.225Z,34.26
2022-09-23T16:12:33.401Z,34.09
2022-09-23T16:17:36.711Z,33.34
2022-09-23T16:22:39.530Z,31.78
2022-09-23T16:27:41.804Z,31.12
2022-09-23T16:32:44.222Z,32.47
2022-09-23T16:37:49.129Z,32.14
2022-09-23T16:42:55.067Z,33.79
2022-09-23T16:47:58.010Z,33.23
2022-09-23T16:53:00.426Z,34.51
2022-09-23T16:58:05.292Z,35.40
2022-09-23T17:03:31.130Z,34.67
2022-09-23T17:08:33.778Z,34.09
2022-09-23T17:13:35.883Z,36.06
2022-09-23T17:18:41.290Z,35.42
2022-09-23T17:23:43.483Z,38.30
2022-09-23T17:28:45.735Z,39.49
2022-09-23T17:33:48.894Z,36.91
2022-09-23T17:38:54.306Z,37.59
2022-09-23T17:43:58.706Z,36.31
2022-09-23T17:49:01.855Z,35.41
2022-09-23T17:54:04.221Z,37.44
2022-09-23T17:59:06.529Z,35.28
2022-09-23T18:04:08.842Z,35.71
2022-09-23T18:09:11.414Z,35.67
2022-09-23T18:14:22.242Z,34.55
2022-09-23T18:19:24.989Z,35.21
2022-09-23T18:24:32.820Z,35.94
2022-09-23T18:29:36.291Z,36.03
2022-09-23T18:34:38.468Z,36.10
2022-09-23T18:39:41.886Z,35.87
2022-09-23T18:44:44.706Z,37.31
2022-09-23T18:50:05.377Z,36.32
2022-09-23T18:55:08.224Z,37.85
2022-09-23T19:00:10.989Z,39.07
2022-09-23T19:05:13.182Z,38.99
2022-09-23T19:10:15.457Z,39.78
2022-09-23T19:15:20.163Z,40.02
2022-09-23T19:20:22.858Z,41.27
2022-09-23T19:25:25.054Z,40.02
2022-09-23T19:30:27.194Z,40.03
2022-09-23T19:35:29.623Z,40.00
2022-09-23T19:40:31.983Z,39.01
2022-09-23T19:45:34.429Z,39.78
2022-09-23T19:50:40.055Z,40.22
2022-09-23T19:55:44.397Z,39.01
2022-09-23T20:00:46.563Z,39.99
2022-09-23T20:05:58.267Z,39.34
2022-09-23T20:11:15.656Z,39.35
2022-09-23T20:16:19.766Z,38.89
2022-09-23T20:21:22.196Z,39.36
2022-09-23T20:26:53.843Z,40.48
2022-09-23T20:31:57.117Z,39.85
2022-09-23T20:37:00.329Z,39.95
2022-09-23T20:42:02.964Z,39.18
2022-09-23T20:47:05.151Z,39.14
2022-09-23T20:52:07.286Z,39.92
2022-09-23T20:57:12.176Z,40.40
2022-09-23T21:02:14.535Z,40.82
2022-09-23T21:07:17.506Z,40.11
2022-09-23T21:12:19.703Z,40.41
2022-09-23T21:17:21.934Z,41.03
2022-09-23T21:22:24.106Z,41.69
2022-09-23T21:27:27.210Z,40.64
2022-09-23T21:32:29.498Z,40.50
2022-09-23T21:37:31.840Z,41.71
2022-09-23T21:42:34.148Z,40.55
2022-09-23T21:47:38.475Z,40.25
2022-09-23T21:52:40.616Z,39.86
2022-09-23T21:57:44.256Z,39.72
2022-09-23T22:02:46.383Z,42.67
2022-09-23T22:07:48.517Z,43.42
2022-09-23T22:12:50.631Z,41.72
2022-09-23T22:17:52.948Z,41.34
2022-09-23T22:22:56.038Z,42.38
2022-09-23T22:28:16.566Z,41.64
2022-09-23T22:33:18.658Z,41.77
2022-09-23T22:38:20.772Z,42.93
2022-09-23T22:43:23.241Z,42.46
2022-09-23T22:48:25.905Z,40.63
2022-09-23T22:53:28.488Z,41.92
2022-09-23T22:58:32.512Z,41.76
2022-09-23T23:03:35.689Z,42.37
2022-09-23T23:08:37.919Z,41.03
2022-09-23T23:13:41.997Z,39.46
2022-09-23T23:18:45.564Z,40.28
2022-09-23T23:23:50.597Z,40.75
2022-09-23T23:28:54.183Z,41.73
2022-09-23T23:33:56.365Z,40.69
2022-09-23T23:38:59.506Z,40.95
2022-09-23T23:44:02.242Z,40.80
2022-09-23T23:49:05.037Z,40.26
2022-09-23T23:54:07.448Z,40.86
2022-09-23T23:59:09.692Z,42.36
